Time;durP1;ratioP1;P1;durP2;ratioP2;P2;SDS_P1;SDS_P2;PMS_P1;PMS_P2;Temp;Humidity;BMP_temperature;BMP_pressure;BME280_temperature;BME280_humidity;BME280_pressure;Samples;Min_cycle;Max_cycle;Signal;HPM_P1;HPM_P2
2022/08/17 00:01:46;;;;;;;;;;;;;;;;;;5024285;28;20288;-56
2022/08/17 00:04:16;;;;;;;;;;;;;;;;;;5011033;28;20620;-57
2022/08/17 00:06:44;;;;;;;;;;;;;;;;;;5009549;28;20593;-58
2022/08/17 00:09:09;;;;;;;;;;;;;;;;;;5013977;28;19921;-57
2022/08/17 00:11:35;;;;;;;;;;;;;;;;;;5012164;28;19995;-57
2022/08/17 00:14:02;;;;;;;;;;;;;;;;;;5010344;28;20044;-57
2022/08/17 00:16:30;;;;;;;;;;;;;;;;;;5011518;28;20434;-57
2022/08/17 00:18:55;;;;;;;;;;;;;;;;;;5014299;28;19921;-56
2022/08/17 00:21:23;;;;;;;;;;;;;;;;;;5011368;28;19921;-57
2022/08/17 00:23:51;;;;;;;;;;;;;;;;;;5012795;28;19991;-56
2022/08/17 00:26:19;;;;;;;;;;;;;;;;;;5028431;28;22087;-57
2022/08/17 00:28:45;;;;;;;;;;;;;;;;;;5021626;28;19932;-57
2022/08/17 00:31:13;;;;;;;;;;;;;;;;;;5008160;28;20303;-56
2022/08/17 00:33:42;;;;;;;;;;;;;;;;;;5012063;28;20618;-56
2022/08/17 00:36:12;;;;;;;;;;;;;;;;;;5010929;28;19921;-57
2022/08/17 00:38:38;;;;;;;;;;;;;;;;;;5008619;28;19967;-57
2022/08/17 00:41:04;;;;;;;;;;;;;;;;;;5011227;28;19924;-57
2022/08/17 00:43:29;;;;;;;;;;;;;;;;;;5008861;28;19924;-57
2022/08/17 00:45:54;;;;;;;;;;;;;;;;;;5011751;28;19916;-57
2022/08/17 00:48:20;;;;;;;;;;;;;;;;;;5010266;28;20300;-56
2022/08/17 00:50:46;;;;;;;;;;;;;;;;;;5014707;28;19981;-58
2022/08/17 00:53:11;;;;;;;;;;;;;;;;;;5011765;28;19917;-58
2022/08/17 00:55:39;;;;;;;;;;;;;;;;;;5026372;28;19972;-56
2022/08/17 00:58:05;;;;;;;;;;;;;;;;;;5010271;28;19920;-57
2022/08/17 01:00:30;;;;;;;;;;;;;;;;;;5009121;28;20026;-58
2022/08/17 01:02:56;;;;;;;;;;;;;;;;;;5001057;28;19955;-56
2022/08/17 01:05:22;;;;;;;;;;;;;;;;;;5007531;28;19921;-57
2022/08/17 01:07:47;;;;;;;;;;;;;;;;;;4993618;28;19921;-57
2022/08/17 01:10:12;;;;;;;;;;;;;;;;;;5015215;28;19925;-57
2022/08/17 01:12:38;;;;;;;;;;;;;;;;;;5012419;28;19945;-57
2022/08/17 01:15:03;;;;;;;;;;;;;;;;;;5017182;28;19974;-58
2022/08/17 01:17:28;;;;;;;;;;;;;;;;;;5014658;28;20636;-57
2022/08/17 01:19:54;;;;;;;;;;;;;;;;;;5030947;28;20118;-55
2022/08/17 01:22:22;;;;;;;;;;;;;;;;;;5028701;28;19921;-57
2022/08/17 01:24:50;;;;;;;;;;;;;;;;;;5013781;28;19931;-57
2022/08/17 01:27:16;;;;;;;;;;;;;;;;;;5013462;28;19925;-58
2022/08/17 01:29:42;;;;;;;;;;;;;;;;;;5015387;28;20004;-57
2022/08/17 01:32:07;;;;;;;;;;;;;;;;;;5012783;28;20383;-57
2022/08/17 01:34:32;;;;;;;;;;;;;;;;;;5018511;28;19993;-56
2022/08/17 01:36:58;;;;;;;;;;;;;;;;;;5013391;28;20028;-57
2022/08/17 01:39:25;;;;;;;;;;;;;;;;;;5012808;28;19929;-57
2022/08/17 01:41:51;;;;;;;;;;;;;;;;;;5012469;28;20376;-57
2022/08/17 01:44:19;;;;;;;;;;;;;;;;;;5029980;28;19921;-57
2022/08/17 01:46:45;;;;;;;;;;;;;;;;;;5010560;28;19940;-57
2022/08/17 01:49:10;;;;;;;;;;;;;;;;;;5018357;28;20373;-58
2022/08/17 01:51:36;;;;;;;;;;;;;;;;;;5014965;28;19927;-57
2022/08/17 01:54:03;;;;;;;;;;;;;;;;;;5025829;28;20098;-56
2022/08/17 01:56:31;;;;;;;;;;;;;;;;;;5011209;28;19928;-57
2022/08/17 01:58:57;;;;;;;;;;;;;;;;;;5014968;28;20450;-57
2022/08/17 02:01:23;;;;;;;;;;;;;;;;;;5029845;28;19935;-57
2022/08/17 02:03:48;;;;;;;;;;;;;;;;;;5010425;28;20016;-57
2022/08/17 02:06:14;;;;;;;;;;;;;;;;;;5013513;28;20442;-57
2022/08/17 02:08:42;;;;;;;;;;;;;;;;;;5013734;28;19921;-57
2022/08/17 02:11:07;;;;;;;;;;;;;;;;;;5011340;28;20444;-57
2022/08/17 02:13:36;;;;;;;;;;;;;;;;;;5015245;28;19921;-56
2022/08/17 02:16:02;;;;;;;;;;;;;;;;;;5000524;28;19936;-57
2022/08/17 02:18:27;;;;;;;;;;;;;;;;;;5010659;28;19925;-57
2022/08/17 02:20:52;;;;;;;;;;;;;;;;;;5011670;28;20545;-56
2022/08/17 02:23:17;;;;;;;;;;;;;;;;;;5000047;28;19932;-58
2022/08/17 02:25:43;;;;;;;;;;;;;;;;;;5014293;28;19928;-57
2022/08/17 02:28:11;;;;;;;;;;;;;;;;;;5014101;28;19925;-57
2022/08/17 02:30:38;;;;;;;;;;;;;;;;;;5015162;28;19917;-56
2022/08/17 02:33:04;;;;;;;;;;;;;;;;;;4996404;28;20614;-57
2022/08/17 02:35:31;;;;;;;;;;;;;;;;;;5013274;28;20002;-56
2022/08/17 02:38:00;;;;;;;;;;;;;;;;;;4996014;28;19925;-56
2022/08/17 02:40:25;;;;;;;;;;;;;;;;;;5012140;28;19929;-57
2022/08/17 02:42:53;;;;;;;;;;;;;;;;;;5013864;28;19925;-57
2022/08/17 02:45:18;;;;;;;;;;;;;;;;;;5015021;28;20016;-57
2022/08/17 02:47:48;;;;;;;;;;;;;;;;;;5009959;28;20011;-57
2022/08/17 02:50:18;;;;;;;;;;;;;;;;;;5026898;28;19951;-56
2022/08/17 02:52:46;;;;;;;;;;;;;;;;;;5013741;28;19986;-57
2022/08/17 02:55:12;;;;;;;;;;;;;;;;;;5013025;28;19999;-57
2022/08/17 02:57:37;;;;;;;;;;;;;;;;;;5013176;28;20385;-58
2022/08/17 03:00:06;;;;;;;;;;;;;;;;;;5012536;28;19925;-58
2022/08/17 03:02:32;;;;;;;;;;;;;;;;;;5012745;28;19921;-57
2022/08/17 03:04:57;;;;;;;;;;;;;;;;;;5012325;28;19945;-57
2022/08/17 03:07:25;;;;;;;;;;;;;;;;;;5011036;28;19995;-57
2022/08/17 03:09:52;;;;;;;;;;;;;;;;;;5012315;28;19921;-55
2022/08/17 03:12:18;;;;;;;;;;;;;;;;;;5012437;28;19925;-56
2022/08/17 03:14:48;;;;;;;;;;;;;;;;;;5012439;28;19921;-57
2022/08/17 03:17:13;;;;;;;;;;;;;;;;;;5013051;28;19991;-57
2022/08/17 03:19:41;;;;;;;;;;;;;;;;;;5013797;28;21047;-57
2022/08/17 03:22:07;;;;;;;;;;;;;;;;;;5011877;28;19921;-57
2022/08/17 03:24:35;;;;;;;;;;;;;;;;;;5014614;28;19947;-58
2022/08/17 03:27:00;;;;;;;;;;;;;;;;;;5027277;28;19917;-57
2022/08/17 03:29:25;;;;;;;;;;;;;;;;;;5015595;28;19928;-57
2022/08/17 03:31:51;;;;;;;;;;;;;;;;;;5011777;28;19963;-57
2022/08/17 03:34:18;;;;;;;;;;;;;;;;;;5012894;28;20334;-58
2022/08/17 03:36:44;;;;;;;;;;;;;;;;;;5012950;28;20289;-57
2022/08/17 03:39:10;;;;;;;;;;;;;;;;;;5024907;28;20865;-56
2022/08/17 03:41:35;;;;;;;;;;;;;;;;;;5012576;28;19924;-57
2022/08/17 03:44:01;;;;;;;;;;;;;;;;;;5014451;28;20321;-57
2022/08/17 03:57:22;;;;;;;;;;;;;;;;;;5013031;28;19940;-57
2022/08/17 03:59:50;;;;;;;;;;;;;;;;;;5011356;28;19921;-57
2022/08/17 04:02:16;;;;;;;;;;;;;;;;;;5014761;28;22165;-57
2022/08/17 04:04:41;;;;;;;;;;;;;;;;;;5011725;28;19948;-58
2022/08/17 04:07:09;;;;;;;;;;;;;;;;;;5011818;28;20004;-58
2022/08/17 04:09:35;;;;;;;;;;;;;;;;;;5013205;28;19920;-56
2022/08/17 04:12:03;;;;;;;;;;;;;;;;;;5017050;28;19994;-57
2022/08/17 04:14:32;;;;;;;;;;;;;;;;;;5012430;28;19928;-57
2022/08/17 04:16:57;;;;;;;;;;;;;;;;;;5010644;28;19921;-57
2022/08/17 04:19:22;;;;;;;;;;;;;;;;;;5014312;28;19921;-57
2022/08/17 04:21:48;;;;;;;;;;;;;;;;;;5012177;28;19936;-58
2022/08/17 04:24:13;;;;;;;;;;;;;;;;;;5015968;28;20019;-58
2022/08/17 04:26:41;;;;;;;;;;;;;;;;;;5013408;28;20447;-58
2022/08/17 04:29:06;;;;;;;;;;;;;;;;;;4999589;28;19921;-58
2022/08/17 04:31:34;;;;;;;;;;;;;;;;;;5015057;28;19931;-57
2022/08/17 04:33:59;;;;;;;;;;;;;;;;;;5011775;28;19971;-58
2022/08/17 04:36:25;;;;;;;;;;;;;;;;;;5016081;28;19925;-56
2022/08/17 04:38:51;;;;;;;;;;;;;;;;;;5011143;28;20343;-58
2022/08/17 04:44:03;;;;;;;;;;;;;;;;;;5030330;28;20299;-57
2022/08/17 04:46:30;;;;;;;;;;;;;;;;;;5011953;28;21866;-57
2022/08/17 04:48:55;;;;;;;;;;;;;;;;;;4987863;28;20072;-57
2022/08/17 04:51:21;;;;;;;;;;;;;;;;;;5001162;28;20038;-57
2022/08/17 04:53:49;;;;;;;;;;;;;;;;;;5001352;28;19928;-57
2022/08/17 04:56:17;;;;;;;;;;;;;;;;;;5001416;28;19926;-56
2022/08/17 04:58:45;;;;;;;;;;;;;;;;;;5004931;28;19921;-57
2022/08/17 05:01:15;;;;;;;;;;;;;;;;;;5011509;28;19921;-58
2022/08/17 05:03:40;;;;;;;;;;;;;;;;;;5006854;28;19921;-58
2022/08/17 05:06:06;;;;;;;;;;;;;;;;;;5005970;28;19924;-58
2022/08/17 05:08:36;;;;;;;;;;;;;;;;;;5008982;28;20024;-57
2022/08/17 05:11:01;;;;;;;;;;;;;;;;;;5001566;28;19921;-57
2022/08/17 05:13:29;;;;;;;;;;;;;;;;;;5003634;28;19970;-57
2022/08/17 05:15:56;;;;;;;;;;;;;;;;;;5010357;28;20790;-58
2022/08/17 05:18:21;;;;;;;;;;;;;;;;;;5001617;28;20023;-57
2022/08/17 05:20:49;;;;;;;;;;;;;;;;;;5000226;28;19925;-59
2022/08/17 05:23:17;;;;;;;;;;;;;;;;;;5003492;28;19921;-57
2022/08/17 05:25:46;;;;;;;;;;;;;;;;;;5006462;28;19921;-58
2022/08/17 05:28:14;;;;;;;;;;;;;;;;;;5004743;28;19917;-57
2022/08/17 05:30:42;;;;;;;;;;;;;;;;;;5003892;28;19917;-58
2022/08/17 05:33:07;;;;;;;;;;;;;;;;;;5002259;28;19924;-57
2022/08/17 05:35:32;;;;;;;;;;;;;;;;;;5019065;28;20772;-57
2022/08/17 05:37:58;;;;;;;;;;;;;;;;;;5004374;28;20050;-58
2022/08/17 05:40:24;;;;;;;;;;;;;;;;;;5002131;28;19924;-57
2022/08/17 05:42:49;;;;;;;;;;;;;;;;;;5001513;28;20753;-58
2022/08/17 05:45:15;;;;;;;;;;;;;;;;;;4999792;28;20050;-57
2022/08/17 05:47:42;;;;;;;;;;;;;;;;;;4998685;28;20313;-56
2022/08/17 05:50:10;;;;;;;;;;;;;;;;;;4997766;28;19951;-58
2022/08/17 05:52:36;;;;;;;;;;;;;;;;;;5000677;28;19935;-58
2022/08/17 05:55:01;;;;;;;;;;;;;;;;;;5003948;28;19921;-58
2022/08/17 05:57:26;;;;;;;;;;;;;;;;;;5019958;28;20475;-57
2022/08/17 05:59:54;;;;;;;;;;;;;;;;;;5008101;28;19917;-57
2022/08/17 06:02:20;;;;;;;;;;;;;;;;;;5008189;28;19925;-58
2022/08/17 06:04:48;;;;;;;;;;;;;;;;;;5005802;28;20054;-57
2022/08/17 06:07:16;;;;;;;;;;;;;;;;;;5001978;28;20236;-59
2022/08/17 06:09:41;;;;;;;;;;;;;;;;;;5011813;28;19928;-56
2022/08/17 06:12:09;;;;;;;;;;;;;;;;;;5007794;28;20264;-57
2022/08/17 06:14:37;;;;;;;;;;;;;;;;;;5006642;28;20039;-57
2022/08/17 06:17:02;;;;;;;;;;;;;;;;;;5006337;28;19986;-57
2022/08/17 06:19:27;;;;;;;;;;;;;;;;;;5004083;28;19925;-58
2022/08/17 06:21:53;;;;;;;;;;;;;;;;;;5008354;28;20360;-59
2022/08/17 06:24:18;;;;;;;;;;;;;;;;;;5004598;28;19927;-59
2022/08/17 06:26:44;;;;;;;;;;;;;;;;;;5021611;28;19921;-59
2022/08/17 06:29:14;;;;;;;;;;;;;;;;;;5007832;28;19921;-61
2022/08/17 06:31:40;;;;;;;;;;;;;;;;;;5025101;28;19948;-63
2022/08/17 06:34:08;;;;;;;;;;;;;;;;;;5013469;28;19921;-61
2022/08/17 06:36:35;;;;;;;;;;;;;;;;;;5017568;28;19931;-57
2022/08/17 06:39:03;;;;;;;;;;;;;;;;;;5014134;28;20422;-60
2022/08/17 06:41:28;;;;;;;;;;;;;;;;;;5015498;28;19925;-60
2022/08/17 06:43:56;;;;;;;;;;;;;;;;;;5018651;28;20291;-60
2022/08/17 06:46:26;;;;;;;;;;;;;;;;;;5030914;28;19924;-60
2022/08/17 06:48:54;;;;;;;;;;;;;;;;;;5017711;28;20744;-59
2022/08/17 06:51:34;;;;;;;;;;;;;;;;;;5018734;28;19953;-59
2022/08/17 06:54:04;;;;;;;;;;;;;;;;;;5017086;28;19932;-60
2022/08/17 06:56:31;;;;;;;;;;;;;;;;;;5018846;28;19921;-59
2022/08/17 06:59:01;;;;;;;;;;;;;;;;;;5018983;28;19925;-59
2022/08/17 07:01:29;;;;;;;;;;;;;;;;;;5032064;28;20951;-60
2022/08/17 07:03:57;;;;;;;;;;;;;;;;;;5000744;28;19924;-60
2022/08/17 07:06:22;;;;;;;;;;;;;;;;;;5019053;28;20087;-60
2022/08/17 07:08:48;;;;;;;;;;;;;;;;;;5033842;28;19970;-60
2022/08/17 07:11:13;;;;;;;;;;;;;;;;;;5019478;28;19917;-57
2022/08/17 07:13:44;;;;;;;;;;;;;;;;;;5021045;28;19963;-58
2022/08/17 07:16:13;;;;;;;;;;;;;;;;;;5030836;28;19920;-59
2022/08/17 07:18:39;;;;;;;;;;;;;;;;;;5018033;28;19917;-59
2022/08/17 07:21:07;;;;;;;;;;;;;;;;;;5013130;28;19925;-58
2022/08/17 07:23:38;;;;;;;;;;;;;;;;;;5018695;28;19952;-59
2022/08/17 07:26:03;;;;;;;;;;;;;;;;;;5014318;28;20299;-59
2022/08/17 07:28:29;;;;;;;;;;;;;;;;;;4998859;28;20434;-59
2022/08/17 07:30:54;;;;;;;;;;;;;;;;;;5016339;28;19928;-61
2022/08/17 07:33:21;;;;;;;;;;;;;;;;;;5016248;28;19921;-60
2022/08/17 07:35:48;;;;;;;;;;;;;;;;;;5017438;28;19929;-60
2022/08/17 07:38:16;;;;;;;;;;;;;;;;;;5017456;28;19920;-61
2022/08/17 07:40:41;;;;;;;;;;;;;;;;;;5018105;28;19924;-60
2022/08/17 07:43:12;;;;;;;;;;;;;;;;;;5018775;28;19921;-60
2022/08/17 07:48:24;;;;;;;;;;;;;;;;;;5015356;28;19917;-60
2022/08/17 07:50:52;;;;;;;;;;;;;;;;;;5016405;28;20020;-59
2022/08/17 07:53:17;;;;;;;;;;;;;;;;;;5014686;28;19950;-60
2022/08/17 07:55:45;;;;;;;;;;;;;;;;;;5017087;28;20010;-60
2022/08/17 07:58:11;;;;;;;;;;;;;;;;;;5017061;28;19975;-60
2022/08/17 08:00:39;;;;;;;;;;;;;;;;;;5005629;28;19925;-60
2022/08/17 08:03:09;;;;;;;;;;;;;;;;;;5013213;28;19917;-60
2022/08/17 08:05:34;;;;;;;;;;;;;;;;;;5015593;28;19917;-60
2022/08/17 08:08:02;;;;;;;;;;;;;;;;;;5017223;28;19921;-60
2022/08/17 08:10:28;;;;;;;;;;;;;;;;;;5018003;28;20289;-61
2022/08/17 08:12:54;;;;;;;;;;;;;;;;;;5017589;28;20125;-60
2022/08/17 08:15:22;;;;;;;;;;;;;;;;;;5016976;28;19916;-59
2022/08/17 08:17:47;;;;;;;;;;;;;;;;;;5015344;28;19987;-60
2022/08/17 08:20:15;;;;;;;;;;;;;;;;;;5016309;28;19925;-58
2022/08/17 08:22:42;;;;;;;;;;;;;;;;;;5019489;28;19924;-59
2022/08/17 08:25:08;;;;;;;;;;;;;;;;;;5017499;28;20004;-60
2022/08/17 08:27:34;;;;;;;;;;;;;;;;;;5015327;28;19924;-59
2022/08/17 08:29:59;;;;;;;;;;;;;;;;;;5012243;28;19916;-59
2022/08/17 08:32:24;;;;;;;;;;;;;;;;;;5019554;28;20037;-61
2022/08/17 08:34:50;;;;;;;;;;;;;;;;;;5018978;28;19963;-60
2022/08/17 08:37:15;;;;;;;;;;;;;;;;;;5015580;28;20335;-61
2022/08/17 08:39:40;;;;;;;;;;;;;;;;;;5016513;28;20021;-61
2022/08/17 08:42:09;;;;;;;;;;;;;;;;;;5031016;28;19924;-61
2022/08/17 08:44:35;;;;;;;;;;;;;;;;;;5014220;28;19932;-61
2022/08/17 08:47:02;;;;;;;;;;;;;;;;;;5016192;28;20048;-60
2022/08/17 08:49:29;;;;;;;;;;;;;;;;;;5017390;28;20267;-61
2022/08/17 08:51:54;;;;;;;;;;;;;;;;;;5015776;28;20028;-61
2022/08/17 08:54:19;;;;;;;;;;;;;;;;;;5015315;28;20271;-61
2022/08/17 08:56:46;;;;;;;;;;;;;;;;;;5016112;28;19916;-61
2022/08/17 08:59:13;;;;;;;;;;;;;;;;;;5007084;28;19932;-60
2022/08/17 09:01:38;;;;;;;;;;;;;;;;;;5017043;28;19924;-60
2022/08/17 09:04:07;;;;;;;;;;;;;;;;;;5027740;28;20338;-61
2022/08/17 09:06:37;;;;;;;;;;;;;;;;;;5015652;28;19928;-60
2022/08/17 09:09:05;;;;;;;;;;;;;;;;;;5019100;28;19917;-59
2022/08/17 09:11:31;;;;;;;;;;;;;;;;;;5003816;28;19925;-60
2022/08/17 09:13:56;;;;;;;;;;;;;;;;;;5016944;28;19925;-60
2022/08/17 09:16:22;;;;;;;;;;;;;;;;;;5014439;28;20078;-59
2022/08/17 09:18:50;;;;;;;;;;;;;;;;;;5017834;28;20027;-59
2022/08/17 09:21:18;;;;;;;;;;;;;;;;;;5015898;28;19947;-60
2022/08/17 09:23:43;;;;;;;;;;;;;;;;;;5028301;28;19921;-59
2022/08/17 09:26:11;;;;;;;;;;;;;;;;;;5014578;28;19924;-59
2022/08/17 09:28:36;;;;;;;;;;;;;;;;;;5015844;28;19983;-60
2022/08/17 09:31:03;;;;;;;;;;;;;;;;;;5032952;28;20479;-60
2022/08/17 09:33:30;;;;;;;;;;;;;;;;;;5021183;28;20894;-59
2022/08/17 09:36:00;;;;;;;;;;;;;;;;;;5018414;28;19916;-59
2022/08/17 09:38:30;;;;;;;;;;;;;;;;;;5014972;28;20027;-59
2022/08/17 09:40:58;;;;;;;;;;;;;;;;;;5020610;28;19982;-59
2022/08/17 09:43:23;;;;;;;;;;;;;;;;;;5008291;28;20338;-58
2022/08/17 09:45:49;;;;;;;;;;;;;;;;;;5008740;28;19918;-59
2022/08/17 09:48:14;;;;;;;;;;;;;;;;;;5005833;28;19928;-59
2022/08/17 09:50:40;;;;;;;;;;;;;;;;;;5009790;28;19921;-58
2022/08/17 09:53:05;;;;;;;;;;;;;;;;;;5015030;28;19921;-59
2022/08/17 09:55:31;;;;;;;;;;;;;;;;;;5010197;28;20110;-59
2022/08/17 09:57:56;;;;;;;;;;;;;;;;;;5007930;28;19943;-60
2022/08/17 10:00:24;;;;;;;;;;;;;;;;;;5006209;28;19925;-59
2022/08/17 10:02:53;;;;;;;;;;;;;;;;;;5006862;28;19921;-59
2022/08/17 10:05:18;;;;;;;;;;;;;;;;;;4996824;28;19927;-59
2022/08/17 10:07:45;;;;;;;;;;;;;;;;;;5007561;28;19916;-59
2022/08/17 10:10:11;;;;;;;;;;;;;;;;;;5008929;28;20434;-59
2022/08/17 10:12:39;;;;;;;;;;;;;;;;;;5010798;28;19949;-59
2022/08/17 10:15:08;;;;;;;;;;;;;;;;;;5033325;28;19981;-59
2022/08/17 10:17:33;;;;;;;;;;;;;;;;;;5019359;28;19943;-59
2022/08/17 10:20:01;;;;;;;;;;;;;;;;;;5018910;28;19921;-59
2022/08/17 10:27:55;;;;;;;;;;;;;;;;;;5020969;28;21880;-59
2022/08/17 10:30:20;;;;;;;;;;;;;;;;;;5019813;28;19916;-59
2022/08/17 10:32:45;;;;;;;;;;;;;;;;;;5017802;28;19932;-59
2022/08/17 10:35:11;;;;;;;;;;;;;;;;;;5020706;28;19938;-60
2022/08/17 10:37:39;;;;;;;;;;;;;;;;;;5019769;28;20400;-59
2022/08/17 10:40:04;;;;;;;;;;;;;;;;;;5015500;28;19929;-59
2022/08/17 10:42:30;;;;;;;;;;;;;;;;;;5017759;28;19990;-59
2022/08/17 10:44:55;;;;;;;;;;;;;;;;;;5017757;28;19921;-58
2022/08/17 10:47:25;;;;;;;;;;;;;;;;;;5020520;28;19920;-59
2022/08/17 10:49:54;;;;;;;;;;;;;;;;;;5017167;28;19932;-59
2022/08/17 10:52:25;;;;;;;;;;;;;;;;;;5020847;28;19921;-61
2022/08/17 10:54:55;;;;;;;;;;;;;;;;;;5003125;28;19960;-60
2022/08/17 10:57:22;;;;;;;;;;;;;;;;;;5018935;28;19932;-60
2022/08/17 10:59:50;;;;;;;;;;;;;;;;;;5034018;28;19917;-59
2022/08/17 11:02:18;;;;;;;;;;;;;;;;;;5014777;28;19924;-58
2022/08/17 11:04:46;;;;;;;;;;;;;;;;;;5015490;28;21870;-61
2022/08/17 11:07:11;;;;;;;;;;;;;;;;;;5013250;28;19924;-59
2022/08/17 11:09:37;;;;;;;;;;;;;;;;;;5012725;28;19971;-59
2022/08/17 11:12:05;;;;;;;;;;;;;;;;;;5016813;28;19920;-60
2022/08/17 11:14:30;;;;;;;;;;;;;;;;;;5018205;28;20004;-63
2022/08/17 11:16:56;;;;;;;;;;;;;;;;;;5027377;28;21877;-61
2022/08/17 11:19:24;;;;;;;;;;;;;;;;;;5011965;28;19925;-60
2022/08/17 11:21:50;;;;;;;;;;;;;;;;;;5018011;28;19928;-60
2022/08/17 11:24:16;;;;;;;;;;;;;;;;;;5020236;28;20573;-60
2022/08/17 11:26:45;;;;;;;;;;;;;;;;;;5019070;28;19964;-61
2022/08/17 11:29:10;;;;;;;;;;;;;;;;;;5032853;28;19921;-59
2022/08/17 11:31:39;;;;;;;;;;;;;;;;;;5014430;28;19921;-58
2022/08/17 11:34:04;;;;;;;;;;;;;;;;;;5019644;28;19925;-59
2022/08/17 11:36:32;;;;;;;;;;;;;;;;;;5017951;28;19913;-60
2022/08/17 11:38:59;;;;;;;;;;;;;;;;;;5015375;28;19924;-60
2022/08/17 11:41:27;;;;;;;;;;;;;;;;;;5016472;28;19924;-60
2022/08/17 11:43:54;;;;;;;;;;;;;;;;;;5018101;28;20799;-60
2022/08/17 11:46:19;;;;;;;;;;;;;;;;;;5016883;28;19947;-61
2022/08/17 11:51:39;;;;;;;;;;;;;;;;;;5016726;28;20268;-59
2022/08/17 11:54:05;;;;;;;;;;;;;;;;;;5017021;28;20031;-62
2022/08/17 11:56:32;;;;;;;;;;;;;;;;;;5012115;28;19925;-60
2022/08/17 11:59:00;;;;;;;;;;;;;;;;;;5009727;28;19927;-64
2022/08/17 12:01:27;;;;;;;;;;;;;;;;;;5013727;28;19928;-62
2022/08/17 12:03:55;;;;;;;;;;;;;;;;;;5012767;28;19924;-60
2022/08/17 12:06:23;;;;;;;;;;;;;;;;;;5022064;28;19936;-60
2022/08/17 12:08:50;;;;;;;;;;;;;;;;;;5011990;28;20635;-59
2022/08/17 12:11:18;;;;;;;;;;;;;;;;;;5010065;28;19928;-61
2022/08/17 12:13:46;;;;;;;;;;;;;;;;;;5013762;28;20058;-60
2022/08/17 12:16:11;;;;;;;;;;;;;;;;;;5010342;28;20043;-62
2022/08/17 12:18:40;;;;;;;;;;;;;;;;;;5011531;28;20360;-60
2022/08/17 12:21:10;;;;;;;;;;;;;;;;;;5007360;28;19924;-62
2022/08/17 12:23:36;;;;;;;;;;;;;;;;;;5010199;28;20826;-62
2022/08/17 12:26:01;;;;;;;;;;;;;;;;;;5006602;28;20893;-60
2022/08/17 12:28:27;;;;;;;;;;;;;;;;;;5009591;28;20377;-61
2022/08/17 12:30:54;;;;;;;;;;;;;;;;;;5011799;28;20410;-58
2022/08/17 12:33:23;;;;;;;;;;;;;;;;;;5011624;28;19924;-62
2022/08/17 12:35:49;;;;;;;;;;;;;;;;;;5008517;28;20357;-61
2022/08/17 12:38:14;;;;;;;;;;;;;;;;;;5012111;28;19943;-60
2022/08/17 12:40:40;;;;;;;;;;;;;;;;;;5005533;28;20008;-61
2022/08/17 12:43:07;;;;;;;;;;;;;;;;;;5008228;28;20422;-61
2022/08/17 12:45:35;;;;;;;;;;;;;;;;;;5005856;28;19921;-61
2022/08/17 12:48:02;;;;;;;;;;;;;;;;;;5008954;28;20015;-61
2022/08/17 12:50:28;;;;;;;;;;;;;;;;;;5009909;28;19917;-61
2022/08/17 12:52:55;;;;;;;;;;;;;;;;;;5009340;28;19921;-61
2022/08/17 12:55:25;;;;;;;;;;;;;;;;;;5011801;28;19964;-59
2022/08/17 12:57:58;;;;;;;;;;;;;;;;;;5011776;28;19917;-61
2022/08/17 13:00:26;;;;;;;;;;;;;;;;;;5012526;28;19921;-60
2022/08/17 13:02:51;;;;;;;;;;;;;;;;;;5010271;28;20004;-61
2022/08/17 13:05:16;;;;;;;;;;;;;;;;;;5008875;28;19943;-60
2022/08/17 13:07:45;;;;;;;;;;;;;;;;;;5022801;28;19920;-61
2022/08/17 13:10:10;;;;;;;;;;;;;;;;;;5012007;28;19927;-61
2022/08/17 13:12:36;;;;;;;;;;;;;;;;;;5008700;28;19988;-62
2022/08/17 13:15:01;;;;;;;;;;;;;;;;;;5009623;28;19944;-62
2022/08/17 13:17:26;;;;;;;;;;;;;;;;;;5007539;28;19921;-59
2022/08/17 13:19:52;;;;;;;;;;;;;;;;;;5013240;28;19932;-59
2022/08/17 13:22:18;;;;;;;;;;;;;;;;;;5012253;28;19940;-57
2022/08/17 13:24:43;;;;;;;;;;;;;;;;;;5010131;28;19921;-61
2022/08/17 13:27:08;;;;;;;;;;;;;;;;;;5023759;28;19925;-62
2022/08/17 13:29:34;;;;;;;;;;;;;;;;;;5010893;28;20007;-61
2022/08/17 13:32:01;;;;;;;;;;;;;;;;;;5007933;28;20867;-61
2022/08/17 13:34:29;;;;;;;;;;;;;;;;;;5005282;28;19917;-60
2022/08/17 13:36:55;;;;;;;;;;;;;;;;;;5009022;28;19928;-60
2022/08/17 13:39:20;;;;;;;;;;;;;;;;;;5010771;28;20352;-61
2022/08/17 13:41:46;;;;;;;;;;;;;;;;;;5008909;28;20451;-59
2022/08/17 13:44:11;;;;;;;;;;;;;;;;;;5020776;28;19970;-62
2022/08/17 13:46:37;;;;;;;;;;;;;;;;;;5005003;28;20009;-60
2022/08/17 13:49:03;;;;;;;;;;;;;;;;;;5009345;28;20390;-59
2022/08/17 13:51:31;;;;;;;;;;;;;;;;;;5012499;28;19921;-60
2022/08/17 13:54:00;;;;;;;;;;;;;;;;;;5008686;28;19921;-60
2022/08/17 13:56:25;;;;;;;;;;;;;;;;;;5010600;28;19921;-61
2022/08/17 13:58:50;;;;;;;;;;;;;;;;;;5009932;28;20007;-61
2022/08/17 14:01:18;;;;;;;;;;;;;;;;;;5023015;28;20015;-62
2022/08/17 14:03:43;;;;;;;;;;;;;;;;;;5013938;28;19921;-60
2022/08/17 14:06:09;;;;;;;;;;;;;;;;;;5008808;28;19918;-60
2022/08/17 14:08:37;;;;;;;;;;;;;;;;;;5009775;28;19921;-60
2022/08/17 14:11:04;;;;;;;;;;;;;;;;;;5005955;28;21776;-60
2022/08/17 14:13:33;;;;;;;;;;;;;;;;;;5007066;28;19917;-61
2022/08/17 14:15:58;;;;;;;;;;;;;;;;;;4994666;28;20032;-60
2022/08/17 14:18:23;;;;;;;;;;;;;;;;;;5018538;28;19925;-60
2022/08/17 14:20:51;;;;;;;;;;;;;;;;;;5011227;28;19917;-60
2022/08/17 14:23:17;;;;;;;;;;;;;;;;;;4999091;28;19928;-60
2022/08/17 14:25:45;;;;;;;;;;;;;;;;;;5016619;28;20018;-63
2022/08/17 14:28:13;;;;;;;;;;;;;;;;;;5011203;28;20488;-62
2022/08/17 14:30:41;;;;;;;;;;;;;;;;;;5015715;28;19921;-62
2022/08/17 14:33:07;;;;;;;;;;;;;;;;;;5010487;28;19928;-62
2022/08/17 14:35:32;;;;;;;;;;;;;;;;;;5011177;28;19921;-60
2022/08/17 14:37:58;;;;;;;;;;;;;;;;;;5008090;28;19963;-60
2022/08/17 14:40:24;;;;;;;;;;;;;;;;;;5015592;28;19928;-60
2022/08/17 14:42:49;;;;;;;;;;;;;;;;;;5015082;28;20031;-61
2022/08/17 14:45:20;;;;;;;;;;;;;;;;;;5011902;28;19917;-62
2022/08/17 14:47:45;;;;;;;;;;;;;;;;;;5016813;28;19928;-61
2022/08/17 14:50:10;;;;;;;;;;;;;;;;;;5008753;28;19925;-60
2022/08/17 14:52:38;;;;;;;;;;;;;;;;;;5008767;28;19921;-61
2022/08/17 14:55:05;;;;;;;;;;;;;;;;;;5016213;28;19924;-60
2022/08/17 14:57:30;;;;;;;;;;;;;;;;;;5026068;28;19937;-60
2022/08/17 14:59:56;;;;;;;;;;;;;;;;;;5021345;28;19953;-62
2022/08/17 15:02:22;;;;;;;;;;;;;;;;;;5017008;28;19935;-57
2022/08/17 15:04:47;;;;;;;;;;;;;;;;;;5015338;28;19917;-61
2022/08/17 15:07:15;;;;;;;;;;;;;;;;;;5014945;28;19921;-60
2022/08/17 15:09:43;;;;;;;;;;;;;;;;;;5010627;28;19932;-59
2022/08/17 15:12:08;;;;;;;;;;;;;;;;;;5014819;28;20371;-59
2022/08/17 15:14:34;;;;;;;;;;;;;;;;;;5011541;28;19921;-59
2022/08/17 15:17:02;;;;;;;;;;;;;;;;;;5016672;28;21739;-59
2022/08/17 15:19:27;;;;;;;;;;;;;;;;;;5018020;28;19917;-58
2022/08/17 15:21:52;;;;;;;;;;;;;;;;;;5016828;28;19994;-62
2022/08/17 15:24:20;;;;;;;;;;;;;;;;;;5011898;28;20019;-60
2022/08/17 15:26:46;;;;;;;;;;;;;;;;;;5011432;28;20054;-60
2022/08/17 15:29:11;;;;;;;;;;;;;;;;;;5014664;28;20603;-60
2022/08/17 15:31:37;;;;;;;;;;;;;;;;;;5015567;28;19921;-61
2022/08/17 15:34:04;;;;;;;;;;;;;;;;;;5019811;28;19956;-61
2022/08/17 15:36:30;;;;;;;;;;;;;;;;;;5016778;28;20059;-61
2022/08/17 15:38:57;;;;;;;;;;;;;;;;;;5011285;28;19929;-60
2022/08/17 15:41:23;;;;;;;;;;;;;;;;;;5015451;28;20291;-61
2022/08/17 15:43:49;;;;;;;;;;;;;;;;;;5014312;28;20040;-59
2022/08/17 15:46:16;;;;;;;;;;;;;;;;;;5015787;28;19950;-60
2022/08/17 15:48:41;;;;;;;;;;;;;;;;;;5016046;28;20895;-60
2022/08/17 15:51:09;;;;;;;;;;;;;;;;;;5010503;28;20052;-61
2022/08/17 15:53:34;;;;;;;;;;;;;;;;;;5011962;28;19982;-61
2022/08/17 15:55:59;;;;;;;;;;;;;;;;;;5012015;28;19920;-60
2022/08/17 15:58:28;;;;;;;;;;;;;;;;;;5011896;28;19921;-60
2022/08/17 16:00:54;;;;;;;;;;;;;;;;;;5014963;28;19921;-60
2022/08/17 16:03:22;;;;;;;;;;;;;;;;;;5014114;28;19917;-60
2022/08/17 16:05:48;;;;;;;;;;;;;;;;;;5013647;28;20020;-60
2022/08/17 16:08:14;;;;;;;;;;;;;;;;;;5014495;28;19925;-61
2022/08/17 16:10:40;;;;;;;;;;;;;;;;;;5014810;28;19956;-61
2022/08/17 16:13:07;;;;;;;;;;;;;;;;;;5013074;28;19939;-61
2022/08/17 16:15:36;;;;;;;;;;;;;;;;;;5014287;28;20065;-59
2022/08/17 16:18:01;;;;;;;;;;;;;;;;;;4992955;28;20287;-60
2022/08/17 16:20:29;;;;;;;;;;;;;;;;;;5011880;28;19928;-60
2022/08/17 16:22:57;;;;;;;;;;;;;;;;;;4999130;28;19925;-60
2022/08/17 16:25:22;;;;;;;;;;;;;;;;;;4999454;28;19928;-61
2022/08/17 16:27:47;;;;;;;;;;;;;;;;;;5009114;28;19932;-60
2022/08/17 16:30:18;;;;;;;;;;;;;;;;;;5010584;28;21450;-60
2022/08/17 16:32:45;;;;;;;;;;;;;;;;;;5010323;28;19969;-62
2022/08/17 16:35:11;;;;;;;;;;;;;;;;;;5012255;28;19927;-67
2022/08/17 16:37:39;;;;;;;;;;;;;;;;;;5010122;28;20499;-60
2022/08/17 16:40:05;;;;;;;;;;;;;;;;;;5011256;28;19979;-65
2022/08/17 16:42:31;;;;;;;;;;;;;;;;;;5024857;28;19948;-66
2022/08/17 16:44:56;;;;;;;;;;;;;;;;;;5011088;28;20045;-65
2022/08/17 16:47:22;;;;;;;;;;;;;;;;;;5011657;28;20561;-64
2022/08/17 16:49:47;;;;;;;;;;;;;;;;;;5010063;28;19936;-64
2022/08/17 16:52:15;;;;;;;;;;;;;;;;;;5012340;28;19968;-64
2022/08/17 16:54:42;;;;;;;;;;;;;;;;;;5012265;28;19921;-63
2022/08/17 16:57:07;;;;;;;;;;;;;;;;;;5009032;28;19928;-64
2022/08/17 16:59:33;;;;;;;;;;;;;;;;;;5012802;28;19916;-63
2022/08/17 17:02:03;;;;;;;;;;;;;;;;;;5007702;28;19931;-65
2022/08/17 17:04:29;;;;;;;;;;;;;;;;;;5008490;28;19924;-64
2022/08/17 17:06:54;;;;;;;;;;;;;;;;;;5014893;28;19960;-64